Time;durP1;ratioP1;P1;durP2;ratioP2;P2;SDS_P1;SDS_P2;PMS_P1;PMS_P2;Temp;Humidity;BMP_temperature;BMP_pressure;BME280_temperature;BME280_humidity;BME280_pressure;Samples;Min_cycle;Max_cycle;Signal;HPM_P1;HPM_P2
2022/07/07 00:01:46;;;;;;;5.95;2.40;;;;;;;16.41;56.12;99718.13;5204467;28;20227;-72
2022/07/07 00:04:36;;;;;;;5.28;2.70;;;;;;;16.49;56.89;99724.50;5204891;28;20056;-72
2022/07/07 00:07:26;;;;;;;4.25;2.45;;;;;;;16.39;57.95;99722.84;5203416;28;20068;-72
2022/07/07 00:10:16;;;;;;;4.82;2.33;;;;;;;16.24;58.27;99718.28;5196443;28;20057;-71
2022/07/07 00:13:07;;;;;;;6.63;2.60;;;;;;;16.26;59.05;99724.28;5204023;28;20640;-72
2022/07/07 00:15:57;;;;;;;6.38;2.55;;;;;;;16.40;58.36;99704.94;5205118;28;20053;-72
2022/07/07 00:18:48;;;;;;;5.70;2.83;;;;;;;16.59;57.96;99727.91;5186601;28;20068;-72
2022/07/07 00:21:38;;;;;;;2.65;2.35;;;;;;;16.52;57.24;99718.84;5202944;28;20056;-72
2022/07/07 00:24:28;;;;;;;4.93;2.65;;;;;;;16.46;57.62;99709.63;5204883;28;20183;-71
2022/07/07 00:27:18;;;;;;;7.00;2.75;;;;;;;16.54;56.82;99717.66;5203742;28;20084;-72
2022/07/07 00:30:09;;;;;;;8.77;3.03;;;;;;;16.55;56.35;99711.31;5195460;28;20046;-72
2022/07/07 00:32:59;;;;;;;4.25;2.70;;;;;;;16.54;58.03;99715.00;5203179;28;20527;-72
2022/07/07 00:35:50;;;;;;;4.85;2.85;;;;;;;16.56;57.82;99701.47;5202796;28;20041;-72
2022/07/07 00:38:40;;;;;;;4.68;2.72;;;;;;;16.65;58.08;99704.00;5186829;28;20267;-72
2022/07/07 00:41:30;;;;;;;5.55;2.80;;;;;;;16.49;58.45;99708.44;5199367;28;20056;-72
2022/07/07 00:44:22;;;;;;;5.80;2.75;;;;;;;16.37;58.97;99706.09;5204265;28;20128;-72
2022/07/07 00:47:12;;;;;;;7.30;2.80;;;;;;;16.49;57.57;99711.13;5203706;28;20057;-72
2022/07/07 00:50:03;;;;;;;5.00;2.45;;;;;;;16.53;57.80;99699.94;5193830;28;20421;-72
2022/07/07 00:52:53;;;;;;;8.18;2.72;;;;;;;16.58;57.55;99702.13;5202766;28;20142;-72
2022/07/07 00:55:44;;;;;;;4.20;2.80;;;;;;;16.46;59.01;99701.59;5204609;28;20069;-72
2022/07/07 00:58:34;;;;;;;4.55;2.80;;;;;;;16.44;58.65;99695.56;5192784;28;20098;-72
2022/07/07 01:01:24;;;;;;;4.63;2.92;;;;;;;16.53;59.11;99697.25;5191190;28;20061;-72
2022/07/07 01:04:17;;;;;;;6.25;3.20;;;;;;;16.55;58.99;99689.06;5203452;28;20053;-72
2022/07/07 01:07:07;;;;;;;6.32;2.83;;;;;;;16.56;58.80;99688.91;5203371;28;20056;-72
2022/07/07 01:09:58;;;;;;;6.70;3.00;;;;;;;16.64;58.71;99685.41;5200786;28;20061;-72
2022/07/07 01:12:48;;;;;;;5.35;2.85;;;;;;;16.63;58.65;99684.56;5211040;28;20083;-72
2022/07/07 01:15:39;;;;;;;5.88;3.00;;;;;;;16.63;58.45;99684.56;5203578;28;20674;-72
2022/07/07 01:18:29;;;;;;;4.10;3.20;;;;;;;16.47;59.12;99684.53;5185610;28;21545;-72
2022/07/07 01:21:21;;;;;;;4.35;3.10;;;;;;;16.41;59.17;99678.00;5202659;28;20053;-72
2022/07/07 01:24:11;;;;;;;3.35;2.83;;;;;;;16.44;59.90;99684.88;5202994;28;20478;-72
2022/07/07 01:27:15;;;;;;;4.78;3.10;;;;;;;16.56;59.44;99677.38;5202568;28;20175;-72
2022/07/07 01:30:06;;;;;;;7.43;3.33;;;;;;;16.47;60.42;99681.03;5193313;28;20135;-72
2022/07/07 01:32:56;;;;;;;4.80;3.45;;;;;;;16.45;60.64;99683.84;5186745;28;20100;-72
2022/07/07 01:35:46;;;;;;;3.92;2.90;;;;;;;16.62;59.57;99677.53;5203369;28;20074;-72
2022/07/07 01:38:38;;;;;;;4.55;3.10;;;;;;;16.61;59.27;99664.31;5192393;28;20068;-72
2022/07/07 01:41:27;;;;;;;5.05;3.13;;;;;;;16.78;58.52;99671.38;5194446;28;20068;-72
2022/07/07 01:44:18;;;;;;;10.18;3.67;;;;;;;16.71;58.91;99658.78;5203014;28;20099;-72
2022/07/07 01:47:10;;;;;;;4.70;3.15;;;;;;;16.79;58.57;99659.66;5203035;28;20099;-72
2022/07/07 01:50:00;;;;;;;6.57;3.60;;;;;;;16.69;58.26;99650.94;5191453;28;20057;-72
2022/07/07 01:52:51;;;;;;;9.05;3.00;;;;;;;16.55;57.84;99632.84;5200736;28;20462;-71
2022/07/07 01:55:41;;;;;;;9.45;3.28;;;;;;;16.52;58.83;99647.38;5203591;28;20088;-72
2022/07/07 01:58:31;;;;;;;4.55;3.20;;;;;;;16.50;59.18;99640.53;5191088;28;20168;-72
2022/07/07 02:01:23;;;;;;;9.77;3.90;;;;;;;16.61;59.61;99634.84;5202292;28;20072;-72
2022/07/07 02:04:13;;;;;;;7.32;3.47;;;;;;;16.74;59.98;99637.03;5187588;28;20061;-72
2022/07/07 02:07:04;;;;;;;6.53;3.22;;;;;;;16.61;60.42;99648.25;5201598;28;20416;-72
2022/07/07 02:09:54;;;;;;;4.28;3.20;;;;;;;16.55;59.81;99654.25;5191664;28;20080;-72
2022/07/07 02:12:44;;;;;;;5.07;3.38;;;;;;;16.70;59.81;99649.91;5201095;28;20431;-72
2022/07/07 02:15:34;;;;;;;6.50;3.15;;;;;;;16.67;59.79;99653.75;5202989;28;20079;-72
2022/07/07 02:18:24;;;;;;;6.95;3.20;;;;;;;16.57;58.46;99654.94;5193083;28;20151;-72
2022/07/07 02:21:15;;;;;;;8.88;4.18;;;;;;;16.75;60.05;99665.50;5201497;28;20562;-72
2022/07/07 02:24:05;;;;;;;6.70;3.97;;;;;;;16.71;59.82;99659.63;5199346;28;20057;-72
2022/07/07 02:26:56;;;;;;;5.90;3.72;;;;;;;16.60;59.43;99662.63;5203132;28;20084;-72
2022/07/07 02:29:46;;;;;;;8.90;3.42;;;;;;;16.67;59.75;99669.00;5189466;28;20199;-72
2022/07/07 02:32:36;;;;;;;5.50;2.72;;;;;;;16.66;57.86;99660.13;5199266;28;20572;-72
2022/07/07 02:35:26;;;;;;;7.53;3.58;;;;;;;16.70;57.20;99660.63;5202232;28;20056;-72
2022/07/07 02:38:17;;;;;;;7.35;3.80;;;;;;;16.64;59.28;99661.28;5192393;28;20068;-72
2022/07/07 02:41:08;;;;;;;8.70;3.90;;;;;;;16.77;60.63;99668.88;5199527;28;20110;-72
2022/07/07 02:43:58;;;;;;;6.22;4.05;;;;;;;16.89;60.59;99663.00;5201474;28;20058;-72
2022/07/07 02:46:48;;;;;;;6.88;3.97;;;;;;;16.71;60.70;99667.66;5202257;28;20057;-72
2022/07/07 02:49:38;;;;;;;10.15;4.35;;;;;;;16.83;59.51;99652.13;5187464;28;20041;-71
2022/07/07 02:52:29;;;;;;;4.57;3.90;;;;;;;16.63;60.63;99651.59;5207668;23;20403;-70
2022/07/07 02:55:19;;;;;;;6.55;4.03;;;;;;;16.78;59.94;99647.25;5180380;28;20045;-70
2022/07/07 02:58:11;;;;;;;6.65;4.10;;;;;;;16.75;60.05;99644.91;5159561;28;20064;-71
2022/07/07 03:01:02;;;;;;;8.15;4.28;;;;;;;16.72;60.71;99644.38;5176636;28;20058;-70
2022/07/07 03:03:52;;;;;;;10.38;4.28;;;;;;;16.85;59.84;99645.63;5180863;28;20068;-71
2022/07/07 03:06:42;;;;;;;8.23;4.00;;;;;;;16.68;60.34;99638.53;5185132;28;20056;-71
2022/07/07 03:09:33;;;;;;;11.10;4.32;;;;;;;16.54;60.57;99647.22;5169077;28;20052;-70
2022/07/07 03:12:23;;;;;;;5.72;4.05;;;;;;;16.42;59.94;99649.38;5168284;28;20077;-70
2022/07/07 03:15:13;;;;;;;7.07;4.20;;;;;;;16.38;60.86;99643.53;5184689;28;20132;-70
2022/07/07 03:18:04;;;;;;;6.00;4.22;;;;;;;16.41;61.11;99627.13;5175049;28;20112;-71
2022/07/07 03:20:54;;;;;;;7.03;3.85;;;;;;;16.50;61.32;99635.19;5177819;28;20097;-71
2022/07/07 03:23:44;;;;;;;9.40;3.50;;;;;;;16.37;61.66;99623.13;5183990;28;20052;-71
2022/07/07 03:26:34;;;;;;;5.47;3.45;;;;;;;16.36;60.49;99613.44;5185406;28;20046;-70
2022/07/07 03:29:25;;;;;;;15.05;4.97;;;;;;;16.60;60.28;99627.84;5167323;28;20060;-70
2022/07/07 03:32:15;;;;;;;9.35;4.70;;;;;;;16.52;61.28;99628.66;5181421;28;20147;-70
2022/07/07 03:35:08;;;;;;;11.90;5.05;;;;;;;16.55;60.83;99608.75;5185739;28;20077;-70
2022/07/07 03:37:58;;;;;;;10.93;4.55;;;;;;;16.53;61.58;99611.59;5175844;28;20064;-70
2022/07/07 03:40:48;;;;;;;9.98;4.22;;;;;;;16.52;60.98;99615.25;5178437;28;20133;-70
2022/07/07 03:43:38;;;;;;;8.27;5.15;;;;;;;16.44;61.17;99588.50;5183254;28;20050;-70
2022/07/07 03:46:29;;;;;;;9.63;4.93;;;;;;;16.20;62.00;99544.69;5183257;28;20045;-70
2022/07/07 03:49:20;;;;;;;8.57;5.00;;;;;;;16.67;60.90;99602.88;5168079;28;20543;-70
2022/07/07 03:52:10;;;;;;;9.40;4.35;;;;;;;16.64;60.99;99599.72;5167980;28;20089;-70
2022/07/07 03:55:01;;;;;;;8.68;4.13;;;;;;;16.73;59.49;99603.22;5184986;28;20053;-70
2022/07/07 03:57:51;;;;;;;13.18;4.45;;;;;;;16.80;59.80;99607.78;5175826;28;20063;-70
2022/07/07 04:00:41;;;;;;;5.80;3.40;;;;;;;16.78;59.68;99601.72;5175989;28;20093;-71
2022/07/07 04:03:31;;;;;;;6.25;4.60;;;;;;;17.04;60.62;99611.41;5183122;28;20053;-69
2022/07/07 04:06:22;;;;;;;8.57;4.30;;;;;;;16.92;59.07;99589.53;5183095;28;20045;-69
2022/07/07 04:09:12;;;;;;;6.90;3.95;;;;;;;16.89;59.68;99609.44;5166616;28;20162;-69
2022/07/07 04:12:02;;;;;;;5.90;3.92;;;;;;;16.86;61.02;99603.59;5180891;28;20053;-69
2022/07/07 04:14:52;;;;;;;6.32;4.00;;;;;;;17.16;59.90;99614.59;5183483;28;20065;-69
2022/07/07 04:17:42;;;;;;;11.82;4.50;;;;;;;17.03;60.34;99626.66;5176941;28;20112;-70
2022/07/07 04:20:33;;;;;;;10.80;4.75;;;;;;;16.95;60.39;99620.47;5174493;28;20717;-69
2022/07/07 04:23:23;;;;;;;9.43;4.10;;;;;;;16.87;60.08;99608.75;5178384;28;20068;-68
2022/07/07 04:26:14;;;;;;;9.15;4.22;;;;;;;16.95;60.25;99618.63;5184024;28;20046;-70
2022/07/07 04:29:04;;;;;;;6.88;3.72;;;;;;;16.95;60.33;99607.06;5168160;28;20443;-70
2022/07/07 04:31:54;;;;;;;9.02;3.88;;;;;;;16.90;59.57;99599.56;5180236;28;20060;-70
2022/07/07 04:34:44;;;;;;;11.68;5.22;;;;;;;17.02;58.66;99608.06;5182787;28;20107;-69
2022/07/07 04:37:35;;;;;;;6.60;4.20;;;;;;;17.17;60.29;99592.97;5166932;28;20080;-70
2022/07/07 04:40:25;;;;;;;7.07;4.40;;;;;;;17.18;59.80;99604.50;5151719;28;20119;-71
2022/07/07 04:43:15;;;;;;;7.43;4.45;;;;;;;17.24;60.10;99601.16;5181442;28;20707;-70
2022/07/07 04:46:06;;;;;;;6.93;4.25;;;;;;;17.25;60.27;99598.31;5183324;28;20053;-70
2022/07/07 04:48:56;;;;;;;6.05;4.28;;;;;;;17.19;61.09;99606.22;5166201;28;20824;-70
2022/07/07 04:51:50;;;;;;;6.82;4.20;;;;;;;17.36;60.38;99599.78;5181341;28;20072;-70
2022/07/07 04:54:40;;;;;;;11.13;4.50;;;;;;;17.30;60.15;99590.59;5177984;28;20056;-71
2022/07/07 04:57:30;;;;;;;8.35;4.72;;;;;;;17.37;60.33;99591.56;5180465;28;20060;-69
2022/07/07 05:00:21;;;;;;;12.32;4.60;;;;;;;17.40;60.01;99589.56;5171620;28;20065;-70
2022/07/07 05:03:11;;;;;;;11.00;4.35;;;;;;;17.16;59.44;99582.44;5179610;28;20046;-70
2022/07/07 05:06:03;;;;;;;14.38;4.63;;;;;;;17.08;59.93;99585.94;5167588;28;20128;-71
2022/07/07 05:08:53;;;;;;;9.85;3.65;;;;;;;17.08;59.60;99581.41;5164838;28;20638;-71
2022/07/07 05:11:44;;;;;;;6.03;4.13;;;;;;;17.16;59.26;99593.97;5181777;28;20128;-70
2022/07/07 05:14:43;;;;;;;8.75;4.18;;;;;;;17.25;59.17;99582.25;5182642;28;20077;-70
2022/07/07 05:17:33;;;;;;;5.72;3.58;;;;;;;17.23;59.68;99581.56;5178033;28;20097;-71
2022/07/07 05:20:24;;;;;;;5.35;3.13;;;;;;;17.32;58.73;99585.91;5173319;28;20068;-70
2022/07/07 05:23:14;;;;;;;7.75;2.90;;;;;;;17.33;58.01;99590.25;5180235;28;20046;-70
2022/07/07 05:26:05;;;;;;;4.97;2.95;;;;;;;17.34;57.80;99591.91;5182278;28;20050;-69
2022/07/07 05:28:55;;;;;;;8.68;3.00;;;;;;;17.44;59.68;99586.34;5162774;28;20821;-73
2022/07/07 05:31:46;;;;;;;3.75;2.70;;;;;;;17.37;58.36;99586.19;5177932;28;20120;-69
2022/07/07 05:34:36;;;;;;;6.05;3.28;;;;;;;17.44;58.57;99580.97;5182230;28;20080;-71
2022/07/07 05:37:26;;;;;;;6.95;2.80;;;;;;;17.65;56.61;99577.72;5178289;28;20068;-70
2022/07/07 05:40:16;;;;;;;5.55;2.63;;;;;;;17.79;56.53;99581.53;5149387;28;20053;-70
2022/07/07 05:43:08;;;;;;;5.78;2.03;;;;;;;17.81;53.29;99576.81;5163866;28;20080;-70
2022/07/07 05:45:58;;;;;;;5.10;2.10;;;;;;;18.01;54.78;99555.72;5166955;28;20065;-70
2022/07/07 05:48:49;;;;;;;3.80;1.90;;;;;;;18.22;54.92;99572.03;5164927;28;21899;-70
2022/07/07 05:51:39;;;;;;;3.13;1.95;;;;;;;18.36;52.74;99565.03;5165489;28;20046;-71
2022/07/07 05:54:30;;;;;;;5.93;2.05;;;;;;;18.80;52.35;99569.72;5166465;28;20045;-69
2022/07/07 05:57:20;;;;;;;3.83;1.67;;;;;;;19.09;52.17;99571.59;5162014;28;20046;-70
2022/07/07 06:00:11;;;;;;;5.47;1.75;;;;;;;19.17;50.59;99560.78;5154887;28;20053;-70
2022/07/07 06:03:01;;;;;;;8.68;1.88;;;;;;;19.28;50.00;99575.59;5156365;28;20056;-69
2022/07/07 06:05:52;;;;;;;4.43;1.50;;;;;;;19.31;50.77;99561.78;5155769;28;20566;-71
2022/07/07 06:08:43;;;;;;;5.53;1.45;;;;;;;19.09;51.41;99560.84;5153603;28;20147;-71
2022/07/07 06:11:33;;;;;;;4.97;1.50;;;;;;;19.29;50.44;99561.13;5157044;28;20140;-69
2022/07/07 06:14:23;;;;;;;4.20;1.77;;;;;;;19.43;50.86;99556.75;5159982;28;20127;-72
2022/07/07 06:17:15;;;;;;;3.63;1.42;;;;;;;19.67;47.94;99569.94;5166097;28;20080;-70
2022/07/07 06:20:06;;;;;;;4.03;1.20;;;;;;;20.10;48.30;99566.50;5163133;28;20085;-69
2022/07/07 06:22:57;;;;;;;2.92;1.60;;;;;;;20.34;48.67;99570.66;5159592;28;20200;-69
2022/07/07 06:25:47;;;;;;;8.93;1.80;;;;;;;20.22;48.70;99561.41;5161262;28;20195;-70
2022/07/07 06:28:37;;;;;;;8.52;1.50;;;;;;;20.69;49.21;99558.13;5168216;28;20057;-70
2022/07/07 06:31:28;;;;;;;7.63;1.60;;;;;;;21.24;47.78;99552.91;5162682;28;20062;-71
2022/07/07 06:34:18;;;;;;;3.25;1.40;;;;;;;21.42;46.80;99558.59;5160371;28;20054;-69
2022/07/07 06:37:09;;;;;;;2.63;1.45;;;;;;;21.31;47.26;99559.16;5158202;28;20148;-69
2022/07/07 06:39:59;;;;;;;9.40;1.73;;;;;;;21.18;46.79;99551.00;5164289;28;20061;-70
2022/07/07 06:42:50;;;;;;;3.40;1.60;;;;;;;20.88;46.47;99529.66;5164171;28;20049;-70
2022/07/07 06:45:47;;;;;;;4.15;1.85;;;;;;;21.44;45.99;99540.38;5155982;28;20050;-69
2022/07/07 06:48:38;;;;;;;3.75;1.52;;;;;;;21.45;46.65;99549.28;5157829;28;20057;-69
2022/07/07 06:51:28;;;;;;;2.03;1.20;;;;;;;21.58;46.43;99554.75;5159338;28;20112;-70
2022/07/07 06:54:19;;;;;;;5.45;1.20;;;;;;;21.65;44.83;99552.88;5161289;28;20420;-69
2022/07/07 06:57:09;;;;;;;6.10;1.30;;;;;;;20.62;44.86;99547.28;5155448;28;20175;-69
2022/07/07 07:00:00;;;;;;;4.50;1.13;;;;;;;21.16;45.48;99543.09;5159730;28;20131;-68
2022/07/07 07:02:50;;;;;;;5.25;1.40;;;;;;;20.88;44.68;99548.53;5165694;28;20061;-69
2022/07/07 07:05:41;;;;;;;2.58;1.33;;;;;;;21.22;44.81;99553.06;5175693;28;20119;-72
2022/07/07 07:08:31;;;;;;;2.33;1.10;;;;;;;21.23;45.11;99562.03;5168742;28;20058;-68
2022/07/07 07:11:21;;;;;;;5.50;1.50;;;;;;;20.68;45.86;99569.09;5171070;28;20125;-68
2022/07/07 07:14:13;;;;;;;6.57;1.50;;;;;;;21.05;45.88;99555.25;5167882;28;20449;-69
2022/07/07 07:17:03;;;;;;;2.67;1.15;;;;;;;21.29;44.33;99553.13;5163503;28;20050;-70
2022/07/07 07:19:53;;;;;;;3.80;1.33;;;;;;;20.92;45.78;99548.97;5140405;28;20810;-70
2022/07/07 07:22:44;;;;;;;9.65;1.35;;;;;;;20.95;45.70;99557.47;5156054;28;20732;-69
2022/07/07 07:25:34;;;;;;;2.70;1.58;;;;;;;20.94;46.55;99561.22;5161192;28;20080;-69
2022/07/07 07:28:25;;;;;;;2.97;1.30;;;;;;;21.00;46.30;99563.13;5162296;28;20180;-70
2022/07/07 07:31:15;;;;;;;4.50;1.55;;;;;;;21.28;45.44;99557.69;5158777;28;20065;-69
2022/07/07 07:34:05;;;;;;;8.50;1.55;;;;;;;20.81;46.76;99558.44;5163288;28;20054;-70
2022/07/07 07:36:56;;;;;;;4.35;1.35;;;;;;;20.56;45.90;99583.13;5163150;28;20053;-71
2022/07/07 07:39:46;;;;;;;6.70;1.52;;;;;;;21.06;45.98;99580.38;5158018;28;20075;-70
2022/07/07 07:42:37;;;;;;;9.65;1.83;;;;;;;21.07;46.52;99593.66;5157243;28;20069;-70
2022/07/07 07:45:27;;;;;;;4.63;1.38;;;;;;;20.60;46.42;99595.16;5161488;28;20069;-69
2022/07/07 07:48:18;;;;;;;5.35;1.73;;;;;;;21.08;45.81;99595.31;5163654;28;20050;-70
2022/07/07 07:51:09;;;;;;;5.18;1.58;;;;;;;20.45;46.45;99585.44;5164747;28;20045;-69
2022/07/07 07:54:02;;;;;;;5.20;1.60;;;;;;;20.96;46.75;99598.75;5162206;28;20061;-69
2022/07/07 07:56:52;;;;;;;7.07;1.63;;;;;;;20.96;46.68;99593.34;5159143;28;20519;-69
2022/07/07 07:59:43;;;;;;;4.03;1.42;;;;;;;20.96;46.11;99586.13;5160061;28;20062;-70
2022/07/07 08:02:33;;;;;;;9.07;1.50;;;;;;;21.24;47.29;99569.06;5160243;28;20093;-70
2022/07/07 08:05:25;;;;;;;4.90;1.42;;;;;;;21.90;45.14;99572.09;5165542;28;20096;-69
2022/07/07 08:08:18;;;;;;;3.33;1.38;;;;;;;21.99;44.82;99568.19;5168484;28;20046;-68
2022/07/07 08:11:12;;;;;;;4.78;1.55;;;;;;;21.73;44.87;99560.81;5159924;28;20065;-69
2022/07/07 08:14:02;;;;;;;4.05;1.35;;;;;;;21.76;44.88;99560.44;5137419;28;20757;-69
2022/07/07 08:16:52;;;;;;;4.07;1.38;;;;;;;21.24;45.25;99553.72;5162942;28;20204;-68
2022/07/07 08:19:44;;;;;;;2.45;1.55;;;;;;;21.63;44.90;99560.38;5169257;28;20191;-69
2022/07/07 08:22:35;;;;;;;4.80;1.65;;;;;;;21.69;45.26;99554.19;5165833;28;20768;-68
2022/07/07 08:25:25;;;;;;;4.68;1.52;;;;;;;21.82;46.44;99566.88;5162793;28;20073;-69
2022/07/07 08:28:16;;;;;;;7.93;2.13;;;;;;;21.53;46.17;99571.53;5160130;28;20100;-69
2022/07/07 08:31:06;;;;;;;4.20;1.60;;;;;;;21.76;45.86;99570.41;5162803;28;20053;-68
2022/07/07 08:33:57;;;;;;;9.23;1.95;;;;;;;21.86;45.69;99560.03;5167089;28;20120;-69
2022/07/07 08:36:48;;;;;;;3.97;1.67;;;;;;;21.82;46.56;99580.38;5159299;28;20058;-69
2022/07/07 08:39:39;;;;;;;6.57;2.10;;;;;;;21.74;46.03;99567.06;5158136;28;20072;-69
2022/07/07 08:42:29;;;;;;;8.95;2.95;;;;;;;21.16;47.41;99550.34;5155784;28;20062;-69
2022/07/07 08:45:20;;;;;;;7.38;3.22;;;;;;;21.21;47.92;99534.41;5154471;28;20135;-68
2022/07/07 08:48:10;;;;;;;6.03;2.88;;;;;;;21.27;48.33;99550.63;5161080;28;20053;-69
2022/07/07 08:51:01;;;;;;;5.40;3.13;;;;;;;22.00;47.82;99556.34;5163099;28;20420;-69
2022/07/07 08:53:52;;;;;;;12.50;3.42;;;;;;;21.76;49.00;99554.19;5168789;28;20123;-69
2022/07/07 08:56:43;;;;;;;13.80;3.53;;;;;;;21.83;48.52;99559.63;5166309;28;20053;-69
2022/07/07 08:59:34;;;;;;;13.23;3.30;;;;;;;21.63;47.90;99564.94;5167607;28;20053;-68
2022/07/07 09:02:31;;;;;;;7.43;3.13;;;;;;;21.90;47.81;99563.16;5168849;28;20415;-69
2022/07/07 09:05:27;;;;;;;5.90;2.60;;;;;;;21.14;49.90;99555.94;5167247;28;20058;-68
2022/07/07 09:08:22;;;;;;;4.33;2.50;;;;;;;20.86;50.34;99577.53;5161218;28;20188;-69
2022/07/07 09:11:12;;;;;;;3.72;2.00;;;;;;;21.08;50.65;99587.22;5159976;28;20423;-69
2022/07/07 09:14:09;;;;;;;4.18;2.42;;;;;;;20.87;51.58;99587.28;5157569;28;20060;-69
2022/07/07 09:16:59;;;;;;;5.10;2.67;;;;;;;20.70;52.99;99580.53;5162511;28;20220;-68
2022/07/07 09:20:05;;;;;;;5.18;2.47;;;;;;;20.28;53.98;99571.41;5164911;28;20056;-70
2022/07/07 09:22:58;;;;;;;3.42;2.25;;;;;;;20.77;52.72;99581.41;5162341;28;20069;-69
2022/07/07 09:25:53;;;;;;;6.70;2.30;;;;;;;21.06;51.51;99573.13;5167110;28;20529;-70
2022/07/07 09:28:47;;;;;;;3.03;1.95;;;;;;;21.18;50.78;99561.78;5159779;28;20072;-71
2022/07/07 09:31:50;;;;;;;3.00;2.22;;;;;;;20.94;51.32;99574.69;5156981;28;20433;-69
2022/07/07 09:34:40;;;;;;;6.25;2.55;;;;;;;21.04;50.50;99577.88;5157890;28;20686;-69
2022/07/07 09:40:59;;;;;;;6.80;2.65;;;;;;;20.59;52.80;99589.94;5166818;28;20057;-69
2022/07/07 09:43:52;;;;;;;7.95;2.35;;;;;;;20.32;53.85;99581.59;5164094;28;20092;-69
2022/07/07 09:46:43;;;;;;;5.47;2.40;;;;;;;20.09;54.97;99599.78;5166280;28;20744;-68
2022/07/07 09:49:33;;;;;;;7.57;2.20;;;;;;;20.32;54.87;99591.53;5159095;28;20077;-69
2022/07/07 09:52:23;;;;;;;5.30;2.38;;;;;;;20.42;53.68;99598.28;5160418;28;20135;-69
2022/07/07 09:55:14;;;;;;;4.80;2.25;;;;;;;20.65;53.01;99589.19;5164692;28;20560;-69
2022/07/07 09:58:04;;;;;;;5.30;1.90;;;;;;;21.11;52.10;99565.25;5164312;28;20068;-69
2022/07/07 10:00:54;;;;;;;3.85;1.83;;;;;;;21.22;52.25;99571.13;5160676;28;20072;-69
2022/07/07 10:03:45;;;;;;;5.40;2.13;;;;;;;21.92;51.80;99590.78;5156640;28;20057;-70
2022/07/07 10:06:38;;;;;;;3.10;1.98;;;;;;;22.25;49.93;99575.53;5159285;28;20898;-70
2022/07/07 10:09:28;;;;;;;4.50;1.90;;;;;;;21.96;49.92;99586.66;5160969;28;20064;-70
2022/07/07 10:12:27;;;;;;;2.58;1.95;;;;;;;21.03;52.11;99594.25;5161575;28;20543;-69
2022/07/07 10:15:19;;;;;;;3.95;2.00;;;;;;;21.95;50.59;99593.06;5160440;28;20161;-70
2022/07/07 10:18:09;;;;;;;3.75;2.05;;;;;;;20.95;51.59;99597.91;5142957;28;20054;-69
2022/07/07 10:21:00;;;;;;;2.03;1.70;;;;;;;21.96;49.90;99592.06;5155156;28;20537;-70
2022/07/07 10:23:51;;;;;;;5.78;2.10;;;;;;;22.27;50.14;99595.06;5159620;28;20629;-69
2022/07/07 10:26:55;;;;;;;4.00;2.00;;;;;;;22.01;49.58;99605.75;5162119;28;20407;-68
2022/07/07 10:29:51;;;;;;;6.47;2.05;;;;;;;21.69;50.03;99591.97;5159411;28;20420;-68
2022/07/07 10:32:51;;;;;;;3.83;2.33;;;;;;;21.77;50.77;99604.44;5160259;28;20050;-69
2022/07/07 10:35:42;;;;;;;3.35;2.03;;;;;;;21.96;51.17;99606.38;5156310;28;21498;-69
2022/07/07 10:38:34;;;;;;;4.50;2.42;;;;;;;21.78;50.62;99573.72;5154497;28;20819;-69
2022/07/07 10:41:25;;;;;;;3.65;1.70;;;;;;;22.52;49.20;99584.50;5157119;28;20064;-73
2022/07/07 10:44:19;;;;;;;6.18;2.08;;;;;;;21.90;50.61;99612.59;5160284;28;20068;-70
2022/07/07 10:47:10;;;;;;;3.42;1.60;;;;;;;22.26;50.54;99596.09;5159849;28;20073;-70
2022/07/07 10:50:01;;;;;;;2.33;1.58;;;;;;;22.30;50.76;99604.63;5156852;28;20058;-68
2022/07/07 10:52:53;;;;;;;2.90;1.83;;;;;;;22.57;49.31;99600.09;5153648;28;20518;-70
2022/07/07 10:56:08;;;;;;;3.67;1.83;;;;;;;21.90;51.30;99612.59;5154253;28;20068;-69
2022/07/07 10:58:59;;;;;;;2.58;1.85;;;;;;;22.32;50.98;99610.66;5162385;28;20065;-73
2022/07/07 11:02:02;;;;;;;2.88;1.60;;;;;;;22.42;51.54;99618.38;5177527;28;20645;-68
2022/07/07 11:04:52;;;;;;;1.92;1.70;;;;;;;22.34;50.89;99613.16;5179020;28;20093;-68
2022/07/07 11:08:06;;;;;;;6.25;2.20;;;;;;;21.95;51.00;99617.38;5171449;28;20061;-69
2022/07/07 11:10:57;;;;;;;3.63;1.73;;;;;;;21.66;52.14;99605.03;5173967;28;20061;-73
2022/07/07 11:13:47;;;;;;;4.43;1.77;;;;;;;21.75;51.51;99607.31;5175098;28;20133;-70
2022/07/07 11:16:39;;;;;;;4.95;2.03;;;;;;;21.82;51.67;99615.47;5176013;28;20264;-68
2022/07/07 11:19:33;;;;;;;5.40;2.05;;;;;;;21.71;51.88;99605.25;5160203;28;20050;-69
2022/07/07 11:22:24;;;;;;;2.40;2.20;;;;;;;21.37;52.72;99617.72;5174461;28;20112;-69
2022/07/07 11:25:18;;;;;;;4.18;2.08;;;;;;;21.37;53.75;99616.91;5175361;28;20152;-70
2022/07/07 11:28:09;;;;;;;5.93;1.80;;;;;;;21.03;52.33;99578.91;5172282;28;21505;-70
2022/07/07 11:31:02;;;;;;;4.97;2.20;;;;;;;21.35;52.29;99609.00;5176477;28;20053;-69
2022/07/07 11:33:55;;;;;;;5.90;2.23;;;;;;;21.10;53.17;99619.41;5155443;28;20137;-69
2022/07/07 11:36:45;;;;;;;3.08;1.80;;;;;;;21.48;52.13;99621.72;5155599;28;20183;-69
2022/07/07 11:39:36;;;;;;;3.72;2.08;;;;;;;22.11;51.21;99614.31;5157542;28;20664;-69
2022/07/07 11:42:34;;;;;;;5.10;2.20;;;;;;;22.41;50.38;99612.13;5160109;28;20184;-69
2022/07/07 11:45:27;;;;;;;4.05;2.10;;;;;;;22.56;49.71;99619.22;5161688;28;20073;-69
2022/07/07 11:48:17;;;;;;;4.00;1.92;;;;;;;22.23;50.52;99614.59;5163278;28;20076;-69
2022/07/07 11:51:08;;;;;;;4.75;2.10;;;;;;;22.01;50.97;99617.38;5167100;28;20085;-70
2022/07/07 11:54:00;;;;;;;6.45;1.90;;;;;;;22.78;48.93;99618.00;5168149;28;20618;-71
2022/07/07 11:56:50;;;;;;;5.40;2.42;;;;;;;23.02;49.76;99596.81;5166514;28;20089;-69
2022/07/07 11:59:40;;;;;;;7.85;2.28;;;;;;;23.04;48.91;99616.34;5164598;28;20097;-70
2022/07/07 12:02:35;;;;;;;4.80;1.70;;;;;;;23.10;48.44;99607.38;5163918;28;20207;-70
2022/07/07 12:05:31;;;;;;;6.45;2.20;;;;;;;21.83;50.54;99590.13;5160850;28;20455;-69
2022/07/07 12:08:21;;;;;;;6.15;2.20;;;;;;;22.07;50.77;99604.13;5156737;28;20053;-69
2022/07/07 12:11:19;;;;;;;7.43;2.50;;;;;;;21.75;51.01;99610.03;5160031;28;20160;-69
2022/07/07 12:14:11;;;;;;;3.20;2.08;;;;;;;21.85;50.81;99600.72;5158358;28;20058;-68
2022/07/07 12:17:02;;;;;;;7.95;2.00;;;;;;;22.12;50.82;99598.94;5163021;28;20497;-68
2022/07/07 12:19:52;;;;;;;4.97;2.50;;;;;;;22.72;48.82;99606.13;5166654;28;20524;-69
2022/07/07 12:22:46;;;;;;;5.88;2.67;;;;;;;22.75;48.53;99610.31;5164951;28;20096;-68
2022/07/07 12:25:37;;;;;;;9.57;2.53;;;;;;;22.14;50.67;99616.59;5171117;28;20061;-69
2022/07/07 12:28:35;;;;;;;7.53;2.60;;;;;;;21.66;51.22;99608.56;5165758;28;20728;-68
2022/07/07 12:31:25;;;;;;;7.53;2.83;;;;;;;21.98;51.14;99614.28;5160763;28;20054;-68
2022/07/07 12:34:24;;;;;;;6.53;2.45;;;;;;;22.25;51.83;99612.50;5159894;28;20185;-69
2022/07/07 12:37:15;;;;;;;5.10;2.20;;;;;;;22.23;51.23;99598.38;5156043;28;20132;-69
2022/07/07 12:40:10;;;;;;;6.22;2.33;;;;;;;23.03;50.34;99603.84;5159660;28;20441;-69
2022/07/07 12:43:05;;;;;;;7.90;2.28;;;;;;;22.82;50.45;99619.25;5159707;28;20084;-69
2022/07/07 12:46:04;;;;;;;5.28;1.90;;;;;;;22.76;49.59;99620.06;5161228;28;20062;-70
2022/07/07 12:48:59;;;;;;;9.32;2.10;;;;;;;22.89;49.12;99614.66;5161209;28;20155;-68
2022/07/07 12:51:51;;;;;;;5.78;1.90;;;;;;;23.28;48.41;99610.28;5161791;28;20112;-68
2022/07/07 12:54:41;;;;;;;10.07;2.42;;;;;;;22.57;49.88;99610.91;5170111;28;20075;-69
2022/07/07 12:57:31;;;;;;;5.47;2.22;;;;;;;21.64;51.95;99589.03;5166869;28;20479;-69
2022/07/07 13:00:26;;;;;;;5.70;1.92;;;;;;;22.74;50.03;99612.16;5157427;28;20086;-68
2022/07/07 13:03:17;;;;;;;4.03;2.10;;;;;;;22.66;49.95;99619.66;5161615;28;20143;-69
2022/07/07 13:06:07;;;;;;;4.28;1.92;;;;;;;22.34;51.16;99615.84;5162411;28;20061;-69
2022/07/07 13:08:57;;;;;;;3.85;2.10;;;;;;;22.80;50.29;99624.00;5157246;28;20111;-68
2022/07/07 13:12:13;;;;;;;8.18;2.45;;;;;;;22.29;51.12;99613.78;5160145;28;20049;-69
2022/07/07 13:15:03;;;;;;;10.27;2.47;;;;;;;21.84;52.41;99626.88;5159060;28;20097;-68
2022/07/07 13:17:54;;;;;;;5.00;1.85;;;;;;;20.72;58.31;99670.09;5158941;28;20089;-69
2022/07/07 13:20:44;;;;;;;5.80;1.48;;;;;;;20.18;62.44;99691.03;5159187;28;20104;-68
2022/07/07 13:23:35;;;;;;;10.93;1.70;;;;;;;19.20;65.93;99683.22;5164462;28;20060;-68
2022/07/07 13:26:25;;;;;;;8.30;1.83;;;;;;;19.87;64.46;99666.22;5166373;28;20227;-68
2022/07/07 13:29:18;;;;;;;2.75;1.50;;;;;;;20.18;63.77;99687.50;5164961;28;20461;-68